createdAt,value
2022-11-22T00:00:20.605Z,-1.68
2022-11-22T00:01:20.601Z,-1.67
2022-11-22T00:02:20.759Z,-1.67
2022-11-22T00:03:20.573Z,-1.65
2022-11-22T00:04:20.565Z,-1.65
2022-11-22T00:05:20.559Z,-1.65
2022-11-22T00:06:20.556Z,-1.67
2022-11-22T00:07:20.597Z,-1.65
2022-11-22T00:08:20.523Z,-1.65
2022-11-22T00:09:20.507Z,-1.65
2022-11-22T00:10:20.508Z,-1.62
2022-11-22T00:11:20.497Z,-1.64
2022-11-22T00:12:20.485Z,-1.62
2022-11-22T00:13:20.464Z,-1.61
2022-11-22T00:14:20.473Z,-1.56
2022-11-22T00:15:20.454Z,-1.56
2022-11-22T00:16:20.448Z,-1.56
2022-11-22T00:17:20.423Z,-1.57
2022-11-22T00:18:20.418Z,-1.57
2022-11-22T00:19:20.404Z,-1.57
2022-11-22T00:20:20.402Z,-1.57
2022-11-22T00:21:20.393Z,-1.57
2022-11-22T00:22:20.377Z,-1.56
2022-11-22T00:23:20.364Z,-1.56
2022-11-22T00:24:20.357Z,-1.59
2022-11-22T00:25:20.344Z,-1.61
2022-11-22T00:26:20.337Z,-1.57
2022-11-22T00:27:20.335Z,-1.62
2022-11-22T00:28:20.317Z,-1.62
2022-11-22T00:29:20.301Z,-1.62
2022-11-22T00:30:20.296Z,-1.64
2022-11-22T00:31:20.285Z,-1.65
2022-11-22T00:32:20.298Z,-1.62
2022-11-22T00:33:20.268Z,-1.62
2022-11-22T00:34:20.260Z,-1.61
2022-11-22T00:35:20.241Z,-1.61
2022-11-22T00:36:20.243Z,-1.61
2022-11-22T00:37:20.230Z,-1.64
2022-11-22T00:38:20.215Z,-1.61
2022-11-22T00:39:20.206Z,-1.59
2022-11-22T00:40:20.191Z,-1.61
2022-11-22T00:41:20.179Z,-1.64
2022-11-22T00:42:20.189Z,-1.64
2022-11-22T00:43:20.159Z,-1.65
2022-11-22T00:44:20.152Z,-1.62
2022-11-22T00:45:20.134Z,-1.64
2022-11-22T00:46:20.133Z,-1.64
2022-11-22T00:47:20.135Z,-1.64
2022-11-22T00:48:20.113Z,-1.65
2022-11-22T00:49:20.100Z,-1.65
2022-11-22T00:50:20.092Z,-1.64
2022-11-22T00:51:20.076Z,-1.65
2022-11-22T00:52:20.093Z,-1.65
2022-11-22T00:53:20.053Z,-1.64
2022-11-22T00:54:20.049Z,-1.65
2022-11-22T00:55:20.039Z,-1.67
2022-11-22T00:56:20.049Z,-1.67
2022-11-22T00:57:20.022Z,-1.71
2022-11-22T00:58:20.026Z,-1.74
2022-11-22T00:59:19.997Z,-1.71
2022-11-22T01:00:19.988Z,-1.72
2022-11-22T01:01:20.019Z,-1.71
2022-11-22T01:02:19.980Z,-1.71
2022-11-22T01:03:19.949Z,-1.67
2022-11-22T01:04:19.946Z,-1.64
2022-11-22T01:05:19.934Z,-1.65
2022-11-22T01:06:19.924Z,-1.65
2022-11-22T01:07:19.999Z,-1.65
2022-11-22T01:08:19.906Z,-1.64
2022-11-22T01:09:19.894Z,-1.65
2022-11-22T01:10:19.898Z,-1.64
2022-11-22T01:11:19.872Z,-1.64
2022-11-22T01:12:19.883Z,-1.61
2022-11-22T01:13:19.851Z,-1.59
2022-11-22T01:14:19.852Z,-1.59
2022-11-22T01:15:19.830Z,-1.56
2022-11-22T01:16:19.830Z,-1.54
2022-11-22T01:17:19.825Z,-1.56
2022-11-22T01:18:19.812Z,-1.54
2022-11-22T01:19:19.793Z,-1.50
2022-11-22T01:20:19.787Z,-1.54
2022-11-22T01:21:19.778Z,-1.53
2022-11-22T01:22:19.792Z,-1.53
2022-11-22T01:23:19.795Z,-1.54
2022-11-22T01:24:19.747Z,-1.53
2022-11-22T01:25:19.749Z,-1.57
2022-11-22T01:26:19.729Z,-1.54
2022-11-22T01:27:19.738Z,-1.56
2022-11-22T01:28:19.709Z,-1.54
2022-11-22T01:29:19.699Z,-1.56
2022-11-22T01:30:19.690Z,-1.56
2022-11-22T01:31:19.677Z,-1.54
2022-11-22T01:32:19.684Z,-1.54
2022-11-22T01:33:19.656Z,-1.56
2022-11-22T01:34:19.650Z,-1.53
2022-11-22T01:35:19.757Z,-1.56
2022-11-22T01:36:19.633Z,-1.57
2022-11-22T01:37:19.629Z,-1.56
2022-11-22T01:38:19.611Z,-1.57
2022-11-22T01:39:19.611Z,-1.59
2022-11-22T01:40:19.594Z,-1.64
2022-11-22T01:41:19.579Z,-1.62
2022-11-22T01:42:19.578Z,-1.62
2022-11-22T01:43:19.557Z,-1.65
2022-11-22T01:44:19.549Z,-1.65
2022-11-22T01:45:19.541Z,-1.71
2022-11-22T01:46:19.536Z,-1.67
2022-11-22T01:47:19.529Z,-1.71
2022-11-22T01:48:19.511Z,-1.67
2022-11-22T01:49:19.494Z,-1.70
2022-11-22T01:50:19.493Z,-1.68
2022-11-22T01:51:19.482Z,-1.65
2022-11-22T01:52:19.481Z,-1.68
2022-11-22T01:53:19.457Z,-1.67
2022-11-22T01:54:19.451Z,-1.67
2022-11-22T01:55:19.447Z,-1.68
2022-11-22T01:56:19.424Z,-1.67
2022-11-22T01:57:19.436Z,-1.67
2022-11-22T01:58:19.404Z,-1.70
2022-11-22T01:59:19.402Z,-1.71
2022-11-22T02:00:19.383Z,-1.68
2022-11-22T02:01:19.418Z,-1.71
2022-11-22T02:02:19.377Z,-1.71
2022-11-22T02:03:19.361Z,-1.70
2022-11-22T02:04:19.351Z,-1.70
2022-11-22T02:05:19.346Z,-1.72
2022-11-22T02:06:19.325Z,-1.72
2022-11-22T02:07:19.395Z,-1.71
2022-11-22T02:08:19.304Z,-1.72
2022-11-22T02:09:19.298Z,-1.71
2022-11-22T02:10:19.286Z,-1.72
2022-11-22T02:11:19.285Z,-1.71
2022-11-22T02:12:19.276Z,-1.72
2022-11-22T02:13:19.260Z,-1.72
2022-11-22T02:14:19.248Z,-1.72
2022-11-22T02:15:19.239Z,-1.72
2022-11-22T02:16:19.229Z,-1.71
2022-11-22T02:17:19.231Z,-1.68
2022-11-22T02:18:19.214Z,-1.71
2022-11-22T02:19:19.195Z,-1.70
2022-11-22T02:20:19.195Z,-1.68
2022-11-22T02:21:19.186Z,-1.65
2022-11-22T02:22:19.172Z,-1.65
2022-11-22T02:23:19.159Z,-1.64
2022-11-22T02:24:19.144Z,-1.62
2022-11-22T02:25:19.137Z,-1.59
2022-11-22T02:26:19.126Z,-1.59
2022-11-22T02:27:19.128Z,-1.61
2022-11-22T02:28:19.100Z,-1.57
2022-11-22T02:29:19.098Z,-1.56
2022-11-22T02:30:19.081Z,-1.54
2022-11-22T02:31:19.082Z,-1.54
2022-11-22T02:32:19.076Z,-1.56
2022-11-22T02:33:19.070Z,-1.57
2022-11-22T02:34:19.059Z,-1.54
2022-11-22T02:35:19.035Z,-1.56
2022-11-22T02:36:19.018Z,-1.53
2022-11-22T02:37:19.027Z,-1.54
2022-11-22T02:38:19.002Z,-1.56
2022-11-22T02:39:18.996Z,-1.53
2022-11-22T02:40:18.998Z,-1.57
2022-11-22T02:41:18.975Z,-1.54
2022-11-22T02:42:18.971Z,-1.54
2022-11-22T02:43:18.964Z,-1.51
2022-11-22T02:44:18.935Z,-1.51
2022-11-22T02:45:18.929Z,-1.54
2022-11-22T02:46:18.920Z,-1.57
2022-11-22T02:47:18.925Z,-1.56
2022-11-22T02:48:18.898Z,-1.59
2022-11-22T02:49:18.890Z,-1.57
2022-11-22T02:50:18.878Z,-1.61
2022-11-22T02:51:18.873Z,-1.61
2022-11-22T02:52:18.875Z,-1.57
2022-11-22T02:53:18.854Z,-1.59
2022-11-22T02:54:18.838Z,-1.56
2022-11-22T02:55:18.841Z,-1.59
2022-11-22T02:56:18.835Z,-1.61
2022-11-22T02:57:18.832Z,-1.54
2022-11-22T02:58:18.798Z,-1.56
2022-11-22T02:59:18.805Z,-1.57
2022-11-22T03:00:18.782Z,-1.56
2022-11-22T03:01:18.807Z,-1.54
2022-11-22T03:02:18.776Z,-1.56
2022-11-22T03:03:18.758Z,-1.54
2022-11-22T03:04:18.738Z,-1.59
2022-11-22T03:05:18.728Z,-1.56
2022-11-22T03:06:18.739Z,-1.54
2022-11-22T03:07:18.818Z,-1.62
2022-11-22T03:08:18.700Z,-1.57
2022-11-22T03:09:18.690Z,-1.57
2022-11-22T03:10:18.676Z,-1.56
2022-11-22T03:11:18.679Z,-1.54
2022-11-22T03:12:18.672Z,-1.59
2022-11-22T03:13:18.654Z,-1.56
2022-11-22T03:14:18.639Z,-1.57
2022-11-22T03:15:18.637Z,-1.56
2022-11-22T03:16:18.620Z,-1.61
2022-11-22T03:17:18.623Z,-1.54
2022-11-22T03:18:18.599Z,-1.56
2022-11-22T03:19:18.596Z,-1.54
2022-11-22T03:20:18.582Z,-1.54
2022-11-22T03:21:18.571Z,-1.54
2022-11-22T03:22:18.593Z,-1.57
2022-11-22T03:24:18.199Z,-1.54
2022-11-22T03:25:17.487Z,-1.53
2022-11-22T03:26:17.486Z,-1.56
2022-11-22T03:27:17.507Z,-1.53
2022-11-22T03:28:17.512Z,-1.51
2022-11-22T03:29:17.479Z,-1.50
2022-11-22T03:30:17.489Z,-1.54
2022-11-22T03:31:17.467Z,-1.54
2022-11-22T03:32:17.471Z,-1.54
2022-11-22T03:33:17.468Z,-1.56
2022-11-22T03:34:17.502Z,-1.57
2022-11-22T03:35:17.418Z,-1.57
2022-11-22T03:36:17.386Z,-1.57
2022-11-22T03:37:17.413Z,-1.57
2022-11-22T03:38:17.409Z,-1.59
2022-11-22T03:39:18.243Z,-1.57
2022-11-22T03:40:17.361Z,-1.57
2022-11-22T03:41:17.381Z,-1.56
2022-11-22T03:42:21.465Z,-1.56
2022-11-22T03:43:17.309Z,-1.54
2022-11-22T03:44:17.321Z,-1.53
2022-11-22T03:45:17.341Z,-1.53
2022-11-22T03:46:17.309Z,-1.56
2022-11-22T03:47:17.310Z,-1.54
2022-11-22T03:48:17.266Z,-1.54
2022-11-22T03:49:17.254Z,-1.53
2022-11-22T03:50:17.244Z,-1.54
2022-11-22T03:51:17.236Z,-1.53
2022-11-22T03:52:17.240Z,-1.51
2022-11-22T03:53:17.224Z,-1.54
2022-11-22T03:54:17.204Z,-1.56
2022-11-22T03:55:17.198Z,-1.56
2022-11-22T03:56:17.184Z,-1.53
2022-11-22T03:57:17.190Z,-1.57
2022-11-22T03:58:17.171Z,-1.54
2022-11-22T03:59:17.171Z,-1.57
2022-11-22T04:00:17.141Z,-1.54
2022-11-22T04:01:17.257Z,-1.54
2022-11-22T04:02:17.158Z,-1.53
2022-11-22T04:03:17.123Z,-1.49
2022-11-22T04:04:17.112Z,-1.50
2022-11-22T04:05:17.102Z,-1.50
2022-11-22T04:06:17.081Z,-1.49
2022-11-22T04:07:17.161Z,-1.47
2022-11-22T04:08:17.066Z,-1.46
2022-11-22T04:09:17.103Z,-1.44
2022-11-22T04:10:22.095Z,-1.46
2022-11-22T04:11:17.034Z,-1.43
2022-11-22T04:12:17.059Z,-1.46
2022-11-22T04:13:17.029Z,-1.43
2022-11-22T04:14:17.008Z,-1.44
2022-11-22T04:15:16.986Z,-1.41
2022-11-22T04:16:16.982Z,-1.39
2022-11-22T04:17:16.986Z,-1.36
2022-11-22T04:18:16.961Z,-1.35
2022-11-22T04:19:16.951Z,-1.36
2022-11-22T04:20:16.942Z,-1.38
2022-11-22T04:21:16.929Z,-1.36
2022-11-22T04:22:16.932Z,-1.36
2022-11-22T04:23:16.910Z,-1.33
2022-11-22T04:24:16.905Z,-1.38
2022-11-22T04:25:16.896Z,-1.35
2022-11-22T04:26:16.871Z,-1.36
2022-11-22T04:27:16.879Z,-1.36
2022-11-22T04:28:16.864Z,-1.36
2022-11-22T04:29:16.850Z,-1.36
2022-11-22T04:30:20.426Z,-1.36
2022-11-22T04:31:16.834Z,-1.36
2022-11-22T04:32:16.838Z,-1.33
2022-11-22T04:33:16.808Z,-1.31
2022-11-22T04:34:16.794Z,-1.29
2022-11-22T04:35:16.786Z,-1.29
2022-11-22T04:36:16.781Z,-1.28
2022-11-22T04:37:16.773Z,-1.26
2022-11-22T04:38:16.745Z,-1.26
2022-11-22T04:39:16.746Z,-1.28
2022-11-22T04:40:16.728Z,-1.28
2022-11-22T04:41:16.726Z,-1.26
2022-11-22T04:42:16.723Z,-1.21
2022-11-22T04:43:16.718Z,-1.26
2022-11-22T04:44:16.684Z,-1.23
2022-11-22T04:45:16.683Z,-1.23
2022-11-22T04:46:16.678Z,-1.23
2022-11-22T04:47:16.685Z,-1.23
2022-11-22T04:48:16.662Z,-1.20
2022-11-22T04:49:16.645Z,-1.18
2022-11-22T04:50:16.623Z,-1.23
2022-11-22T04:51:16.622Z,-1.26
2022-11-22T04:52:16.630Z,-1.29
2022-11-22T04:53:16.607Z,-1.32
2022-11-22T04:54:16.609Z,-1.32
2022-11-22T04:55:16.583Z,-1.31
2022-11-22T04:56:16.583Z,-1.32
2022-11-22T04:57:16.573Z,-1.29
2022-11-22T04:58:16.545Z,-1.32
2022-11-22T04:59:16.541Z,-1.32
2022-11-22T05:00:16.531Z,-1.29
2022-11-22T05:01:16.615Z,-1.28
2022-11-22T05:02:16.522Z,-1.26
2022-11-22T05:03:16.502Z,-1.26
2022-11-22T05:04:16.484Z,-1.26
2022-11-22T05:05:16.487Z,-1.26
2022-11-22T05:06:16.483Z,-1.25
2022-11-22T05:07:16.544Z,-1.23
2022-11-22T05:08:16.449Z,-1.23
2022-11-22T05:09:16.447Z,-1.17
2022-11-22T05:10:19.961Z,-1.15
2022-11-22T05:11:16.442Z,-1.15
2022-11-22T05:12:16.424Z,-1.15
2022-11-22T05:13:16.411Z,-1.14
2022-11-22T05:14:16.422Z,-1.13
2022-11-22T05:15:16.404Z,-1.14
2022-11-22T05:16:16.373Z,-1.13
2022-11-22T05:17:16.382Z,-1.11
2022-11-22T05:18:16.362Z,-1.08
2022-11-22T05:19:16.345Z,-1.07
2022-11-22T05:20:16.346Z,-1.03
2022-11-22T05:21:16.331Z,-1.05
2022-11-22T05:22:16.318Z,-1.08
2022-11-22T05:23:16.302Z,-1.07
2022-11-22T05:24:16.300Z,-1.03
2022-11-22T05:25:17.681Z,-1.03
2022-11-22T05:26:16.266Z,-1.05
2022-11-22T05:27:16.266Z,-1.07
2022-11-22T05:28:16.280Z,-1.05
2022-11-22T05:29:16.259Z,-1.05
2022-11-22T05:30:16.250Z,-1.07
2022-11-22T05:31:16.226Z,-1.08
2022-11-22T05:32:16.209Z,-1.05
2022-11-22T05:33:16.205Z,-1.03
2022-11-22T05:34:16.185Z,-1.03
2022-11-22T05:35:16.191Z,-1.02
2022-11-22T05:36:16.181Z,-1.03
2022-11-22T05:37:16.169Z,-1.05
2022-11-22T05:38:16.163Z,-1.05
2022-11-22T05:39:16.146Z,-1.05
2022-11-22T05:40:16.190Z,-1.00
2022-11-22T05:41:16.126Z,-1.03
2022-11-22T05:42:16.117Z,-1.02
2022-11-22T05:43:16.106Z,-1.00
2022-11-22T05:44:16.086Z,-1.03
2022-11-22T05:45:16.083Z,-1.07
2022-11-22T05:46:20.845Z,-1.02
2022-11-22T05:47:16.067Z,-1.02
2022-11-22T05:48:16.065Z,-1.02
2022-11-22T05:49:16.043Z,-1.05
2022-11-22T05:50:16.019Z,-1.05
2022-11-22T05:51:16.022Z,-1.07
2022-11-22T05:52:16.004Z,-1.02
2022-11-22T05:53:16.035Z,-1.03
2022-11-22T05:54:15.987Z,-1.00
2022-11-22T05:55:15.978Z,-0.97
2022-11-22T05:56:15.992Z,-1.00
2022-11-22T05:57:15.953Z,-0.96
2022-11-22T05:58:15.957Z,-0.97
2022-11-22T05:59:15.942Z,-0.96
2022-11-22T06:00:15.926Z,-0.95
2022-11-22T06:01:15.959Z,-0.96
2022-11-22T06:02:16.002Z,-0.93
2022-11-22T06:03:15.911Z,-0.96
2022-11-22T06:04:15.894Z,-0.93
2022-11-22T06:05:15.882Z,-0.96
2022-11-22T06:06:15.822Z,-0.93
2022-11-22T06:07:15.921Z,-0.92
2022-11-22T06:08:15.890Z,-0.86
2022-11-22T06:09:15.840Z,-0.85
2022-11-22T06:10:15.823Z,-0.90
2022-11-22T06:11:15.823Z,-0.86
2022-11-22T06:12:15.763Z,-0.89
2022-11-22T06:13:15.809Z,-0.95
2022-11-22T06:14:15.778Z,-0.93
2022-11-22T06:15:15.771Z,-0.95
2022-11-22T06:16:15.712Z,-0.96
2022-11-22T06:17:15.708Z,-0.93
2022-11-22T06:18:15.700Z,-0.95
2022-11-22T06:19:15.680Z,-0.92
2022-11-22T06:20:15.671Z,-0.95
2022-11-22T06:21:15.679Z,-0.95
2022-11-22T06:22:15.650Z,-0.95
2022-11-22T06:23:15.650Z,-0.93
2022-11-22T06:24:15.629Z,-0.92
2022-11-22T06:25:15.622Z,-0.92
2022-11-22T06:26:15.612Z,-0.89
2022-11-22T06:27:15.598Z,-0.86
2022-11-22T06:28:15.605Z,-0.86
2022-11-22T06:29:15.616Z,-0.89
2022-11-22T06:30:15.558Z,-0.85
2022-11-22T06:31:15.589Z,-0.89
2022-11-22T06:32:15.553Z,-0.89
2022-11-22T06:33:15.539Z,-0.86
2022-11-22T06:34:15.516Z,-0.81
2022-11-22T06:35:15.525Z,-0.85
2022-11-22T06:36:15.493Z,-0.80
2022-11-22T06:37:15.494Z,-0.81
2022-11-22T06:38:15.488Z,-0.80
2022-11-22T06:39:15.476Z,-0.80
2022-11-22T06:40:15.466Z,-0.78
2022-11-22T06:41:15.451Z,-0.74
2022-11-22T06:42:15.441Z,-0.77
2022-11-22T06:43:15.441Z,-0.73
2022-11-22T06:44:15.412Z,-0.74
2022-11-22T06:45:15.407Z,-0.73
2022-11-22T06:46:15.406Z,-0.71
2022-11-22T06:47:15.388Z,-0.74
2022-11-22T06:48:15.383Z,-0.78
2022-11-22T06:49:15.489Z,-0.77
2022-11-22T06:50:21.449Z,-0.76
2022-11-22T06:51:15.356Z,-0.74
2022-11-22T06:52:15.325Z,-0.71
2022-11-22T06:53:32.654Z,-0.73
2022-11-22T06:54:15.312Z,-0.70
2022-11-22T06:55:42.472Z,-0.70
2022-11-22T06:56:15.298Z,-0.70
2022-11-22T06:57:15.304Z,-0.70
2022-11-22T06:58:15.283Z,-0.65
2022-11-22T06:59:15.274Z,-0.67
2022-11-22T07:00:15.253Z,-0.68
2022-11-22T07:01:15.296Z,-0.71
2022-11-22T07:02:15.240Z,-0.70
2022-11-22T07:03:15.246Z,-0.70
2022-11-22T07:04:15.223Z,-0.71
2022-11-22T07:05:25.676Z,-0.73
2022-11-22T07:06:15.208Z,-0.70
2022-11-22T07:07:15.279Z,-0.71
2022-11-22T07:08:15.242Z,-0.71
2022-11-22T07:09:15.152Z,-0.70
2022-11-22T07:10:15.144Z,-0.67
2022-11-22T07:11:15.142Z,-0.68
2022-11-22T07:12:15.119Z,-0.65
2022-11-22T07:13:15.149Z,-0.65
2022-11-22T07:14:15.095Z,-0.67
2022-11-22T07:15:15.094Z,-0.59
2022-11-22T07:16:15.085Z,-0.58
2022-11-22T07:17:15.070Z,-0.56
2022-11-22T07:18:15.074Z,-0.53
2022-11-22T07:19:15.067Z,-0.53
2022-11-22T07:20:15.042Z,-0.52
2022-11-22T07:21:15.031Z,-0.45
2022-11-22T07:22:15.025Z,-0.41
2022-11-22T07:23:15.033Z,-0.39
2022-11-22T07:24:15.010Z,-0.49
2022-11-22T07:25:15.006Z,-0.56
2022-11-22T07:26:14.990Z,-0.62
2022-11-22T07:27:14.985Z,-0.65
2022-11-22T07:28:14.967Z,-0.60
2022-11-22T07:29:14.952Z,-0.56
2022-11-22T07:30:14.942Z,-0.53
2022-11-22T07:31:14.947Z,-0.53
2022-11-22T07:32:14.924Z,-0.49
2022-11-22T07:33:14.935Z,-0.47
2022-11-22T07:34:14.978Z,-0.49
2022-11-22T07:35:14.924Z,-0.45
2022-11-22T07:36:14.879Z,-0.44
2022-11-22T07:37:14.914Z,-0.39
2022-11-22T07:38:14.873Z,-0.38
2022-11-22T07:39:14.846Z,-0.41
2022-11-22T07:40:14.859Z,-0.35
2022-11-22T07:41:14.828Z,-0.37
2022-11-22T07:42:14.816Z,-0.34
2022-11-22T07:43:14.830Z,-0.27
2022-11-22T07:44:14.786Z,-0.26
2022-11-22T07:45:14.781Z,-0.31
2022-11-22T07:46:14.765Z,-0.30
2022-11-22T07:47:19.843Z,-0.31
2022-11-22T07:48:14.763Z,-0.32
2022-11-22T07:49:14.762Z,-0.27
2022-11-22T07:50:14.743Z,-0.30
2022-11-22T07:51:14.728Z,-0.30
2022-11-22T07:52:14.703Z,-0.24
2022-11-22T07:53:14.715Z,-0.27
2022-11-22T07:54:14.697Z,-0.21
2022-11-22T07:55:14.684Z,-0.20
2022-11-22T07:56:14.665Z,-0.17
2022-11-22T07:57:14.658Z,-0.14
2022-11-22T07:58:14.682Z,-0.13
2022-11-22T07:59:14.646Z,-0.12
2022-11-22T08:00:14.619Z,-0.09
2022-11-22T08:01:14.686Z,-0.08
2022-11-22T08:02:14.605Z,-0.12
2022-11-22T08:03:17.770Z,-0.13
2022-11-22T08:04:14.589Z,-0.12
2022-11-22T08:05:14.584Z,-0.13
2022-11-22T08:06:14.579Z,-0.08
2022-11-22T08:07:14.579Z,-0.09
2022-11-22T08:08:14.550Z,-0.03
2022-11-22T08:09:15.256Z,-0.01
2022-11-22T08:10:14.528Z,-0.03
2022-11-22T08:11:14.505Z,-0.01
2022-11-22T08:12:14.500Z,-0.01
2022-11-22T08:13:14.508Z,-0.01
2022-11-22T08:14:14.500Z,-0.02
2022-11-22T08:15:14.464Z,-0.01
2022-11-22T08:16:14.462Z,-0.05
2022-11-22T08:17:14.456Z,-0.05
2022-11-22T08:18:14.469Z,-0.03
2022-11-22T08:19:14.448Z,-0.01
2022-11-22T08:20:14.422Z,-0.01
2022-11-22T08:21:14.419Z,0.02
2022-11-22T08:22:14.424Z,-0.01
2022-11-22T08:23:14.400Z,-0.01
2022-11-22T08:24:14.396Z,0.01
2022-11-22T08:25:14.390Z,0.02
2022-11-22T08:26:14.395Z,0.05
2022-11-22T08:27:14.360Z,0.08
2022-11-22T08:28:14.361Z,0.08
2022-11-22T08:29:14.761Z,0.07
2022-11-22T08:30:14.318Z,0.05
2022-11-22T08:31:14.310Z,0.05
2022-11-22T08:32:14.299Z,0.08
2022-11-22T08:33:14.309Z,0.10
2022-11-22T08:34:14.289Z,0.07
2022-11-22T08:35:14.267Z,0.05
2022-11-22T08:36:14.283Z,0.01
2022-11-22T08:37:14.237Z,0.05
2022-11-22T08:38:14.410Z,0.05
2022-11-22T08:39:14.305Z,0.02
2022-11-22T08:40:14.217Z,0.04
2022-11-22T08:41:14.209Z,0.05
2022-11-22T08:42:14.206Z,0.07
2022-11-22T08:43:14.200Z,0.07
2022-11-22T08:44:14.171Z,0.08
2022-11-22T08:45:14.188Z,0.12
2022-11-22T08:46:14.163Z,0.10
2022-11-22T08:47:14.145Z,0.13
2022-11-22T08:48:19.113Z,0.10
2022-11-22T08:49:14.115Z,0.12
2022-11-22T08:50:14.113Z,0.10
2022-11-22T08:51:14.120Z,0.07
2022-11-22T08:52:14.083Z,0.07
2022-11-22T08:53:14.247Z,0.10
2022-11-22T08:54:14.084Z,0.12
2022-11-22T08:55:14.083Z,0.13
2022-11-22T08:56:14.052Z,0.12
2022-11-22T08:57:14.057Z,0.16
2022-11-22T08:58:14.055Z,0.17
2022-11-22T08:59:14.125Z,0.20
2022-11-22T09:00:14.001Z,0.20
2022-11-22T09:01:14.108Z,0.26
2022-11-22T09:02:13.990Z,0.31
2022-11-22T09:03:13.982Z,0.33
2022-11-22T09:04:13.967Z,0.28
2022-11-22T09:05:13.944Z,0.33
2022-11-22T09:10:13.902Z,0.28
2022-11-22T09:11:13.908Z,0.30
2022-11-22T09:12:13.878Z,0.26
2022-11-22T09:13:13.885Z,0.30
2022-11-22T09:14:13.858Z,0.33
2022-11-22T09:15:13.855Z,0.30
2022-11-22T09:16:13.847Z,0.33
2022-11-22T09:17:17.734Z,0.34
2022-11-22T09:18:13.837Z,0.34
2022-11-22T09:19:13.791Z,0.34
2022-11-22T09:20:13.808Z,0.35
2022-11-22T09:21:13.821Z,0.34
2022-11-22T09:22:13.775Z,0.31
2022-11-22T09:23:13.771Z,0.35
2022-11-22T09:24:13.796Z,0.40
2022-11-22T09:25:13.744Z,0.37
2022-11-22T09:26:13.727Z,0.35
2022-11-22T09:27:13.715Z,0.33
2022-11-22T09:28:13.728Z,0.35
2022-11-22T09:29:13.702Z,0.34
2022-11-22T09:30:13.699Z,0.40
2022-11-22T09:31:13.681Z,0.43
2022-11-22T09:32:13.691Z,0.44
2022-11-22T09:33:13.670Z,0.40
2022-11-22T09:34:13.674Z,0.41
2022-11-22T09:35:13.632Z,0.43
2022-11-22T09:36:13.655Z,0.48
2022-11-22T09:37:13.608Z,0.52
2022-11-22T09:38:13.614Z,0.53
2022-11-22T09:39:13.600Z,0.59
2022-11-22T09:40:13.598Z,0.62
2022-11-22T09:41:13.581Z,0.62
2022-11-22T09:42:13.556Z,0.62
2022-11-22T09:43:13.568Z,0.60
2022-11-22T09:44:13.534Z,0.60
2022-11-22T09:45:13.528Z,0.60
2022-11-22T09:46:13.517Z,0.63
2022-11-22T09:47:13.498Z,0.63
2022-11-22T09:48:13.528Z,0.64
2022-11-22T09:49:13.503Z,0.67
2022-11-22T09:50:13.476Z,0.70
2022-11-22T09:51:13.476Z,0.74
2022-11-22T09:52:13.459Z,0.74
2022-11-22T09:53:13.459Z,0.75
2022-11-22T09:54:13.445Z,0.78
2022-11-22T09:55:13.413Z,0.77
2022-11-22T09:56:13.457Z,0.77
2022-11-22T09:57:13.407Z,0.78
2022-11-22T09:58:13.416Z,0.81
2022-11-22T09:59:13.387Z,0.81
2022-11-22T10:00:13.395Z,0.84
2022-11-22T10:01:13.418Z,0.82
2022-11-22T10:02:18.527Z,0.82
2022-11-22T10:03:13.355Z,0.81
2022-11-22T10:04:13.339Z,0.86
2022-11-22T10:05:13.315Z,0.86
2022-11-22T10:06:13.313Z,0.88
2022-11-22T10:07:13.358Z,0.89
2022-11-22T10:08:13.303Z,0.82
2022-11-22T10:09:13.270Z,0.81
2022-11-22T10:10:13.277Z,0.80
2022-11-22T10:11:13.251Z,0.80
2022-11-22T10:12:13.257Z,0.78
2022-11-22T10:13:13.246Z,0.80
2022-11-22T10:14:13.233Z,0.84
2022-11-22T10:15:13.216Z,0.84
2022-11-22T10:16:13.224Z,0.81
2022-11-22T10:17:13.216Z,0.82
2022-11-22T10:18:13.194Z,0.86
2022-11-22T10:19:13.163Z,0.84
2022-11-22T10:20:13.163Z,0.88
2022-11-22T10:21:13.149Z,0.88
2022-11-22T10:22:13.160Z,0.89
2022-11-22T10:23:13.132Z,0.88
2022-11-22T10:24:13.141Z,0.86
2022-11-22T10:25:13.117Z,0.88
2022-11-22T10:26:13.114Z,0.92
2022-11-22T10:27:13.110Z,0.90
2022-11-22T10:28:13.099Z,0.95
2022-11-22T10:29:13.068Z,0.93
2022-11-22T10:30:13.060Z,0.92
2022-11-22T10:31:13.065Z,0.98
2022-11-22T10:32:13.044Z,0.92
2022-11-22T10:33:13.032Z,0.98
2022-11-22T10:34:13.015Z,0.99
2022-11-22T10:35:12.997Z,0.99
2022-11-22T10:36:12.998Z,1.00
2022-11-22T10:37:12.987Z,0.99
2022-11-22T10:38:12.983Z,1.06
2022-11-22T10:39:12.957Z,1.08
2022-11-22T10:40:12.952Z,1.10
2022-11-22T10:41:12.946Z,1.17
2022-11-22T10:42:12.941Z,1.14
2022-11-22T10:43:12.962Z,1.11
2022-11-22T10:44:12.924Z,1.13
2022-11-22T10:45:12.896Z,1.14
2022-11-22T10:46:12.889Z,1.13
2022-11-22T10:47:12.876Z,1.17
2022-11-22T10:48:12.899Z,1.20
2022-11-22T10:49:12.861Z,1.20
2022-11-22T10:50:12.853Z,1.24
2022-11-22T10:51:12.877Z,1.24
2022-11-22T10:52:12.875Z,1.25
2022-11-22T10:53:12.812Z,1.28
2022-11-22T10:54:12.821Z,1.29
2022-11-22T10:55:12.795Z,1.31
2022-11-22T10:56:12.789Z,1.32
2022-11-22T10:57:12.776Z,1.32
2022-11-22T10:58:12.778Z,1.36
2022-11-22T10:59:12.768Z,1.35
2022-11-22T11:00:12.744Z,1.35
2022-11-22T11:01:12.783Z,1.31
2022-11-22T11:02:12.725Z,1.31
2022-11-22T11:03:12.729Z,1.28
2022-11-22T11:04:13.890Z,1.32
2022-11-22T11:05:12.694Z,1.32
2022-11-22T11:06:24.410Z,1.34
2022-11-22T11:07:13.159Z,1.34
2022-11-22T11:08:38.937Z,1.39
2022-11-22T11:10:17.442Z,1.46
2022-11-22T11:11:12.646Z,1.44
2022-11-22T11:12:12.620Z,1.44
2022-11-22T11:13:12.614Z,1.46
2022-11-22T11:14:12.620Z,1.46
2022-11-22T11:15:12.591Z,1.49
2022-11-22T11:16:12.594Z,1.52
2022-11-22T11:17:12.575Z,1.54
2022-11-22T11:18:12.566Z,1.49
2022-11-22T11:19:12.588Z,1.49
2022-11-22T11:20:12.548Z,1.50
2022-11-22T11:21:12.530Z,1.52
2022-11-22T11:22:12.517Z,1.57
2022-11-22T11:23:15.130Z,1.60
2022-11-22T11:24:12.523Z,1.61
2022-11-22T11:25:12.507Z,1.64
2022-11-22T11:26:12.492Z,1.61
2022-11-22T11:27:12.460Z,1.60
2022-11-22T11:28:12.464Z,1.61
2022-11-22T11:29:12.453Z,1.63
2022-11-22T11:30:12.442Z,1.67
2022-11-22T11:31:12.434Z,1.70
2022-11-22T11:32:12.427Z,1.74
2022-11-22T11:33:12.396Z,1.81
2022-11-22T11:34:12.425Z,1.82
2022-11-22T11:35:12.393Z,1.82
2022-11-22T11:36:12.382Z,1.81
2022-11-22T11:37:12.360Z,1.79
2022-11-22T11:38:12.386Z,1.82
2022-11-22T11:39:12.503Z,1.85
2022-11-22T11:40:12.338Z,1.88
2022-11-22T11:41:12.328Z,1.86
2022-11-22T11:42:12.312Z,1.90
2022-11-22T11:43:12.304Z,1.86
2022-11-22T11:44:12.304Z,1.89
2022-11-22T11:45:12.284Z,1.88
2022-11-22T11:46:12.439Z,1.88
2022-11-22T11:47:12.341Z,1.90
2022-11-22T11:48:12.249Z,1.93
2022-11-22T11:49:12.358Z,1.93
2022-11-22T11:50:12.242Z,1.98
2022-11-22T11:51:12.215Z,1.92
2022-11-22T11:52:12.222Z,1.95
2022-11-22T11:53:12.195Z,1.92
2022-11-22T11:54:12.276Z,1.95
2022-11-22T11:55:12.181Z,1.95
2022-11-22T11:56:12.165Z,1.89
2022-11-22T11:57:12.158Z,1.90
2022-11-22T11:58:16.179Z,1.90
2022-11-22T11:59:12.156Z,1.90
2022-11-22T12:00:12.141Z,1.90
2022-11-22T12:01:12.133Z,1.92
2022-11-22T12:02:12.231Z,1.90
2022-11-22T12:03:12.104Z,1.92
2022-11-22T12:04:12.102Z,1.93
2022-11-22T12:05:12.069Z,1.89
2022-11-22T12:06:12.069Z,1.92
2022-11-22T12:07:12.066Z,1.93
2022-11-22T12:08:12.038Z,1.93
2022-11-22T12:09:12.038Z,1.93
2022-11-22T12:10:12.055Z,1.90
2022-11-22T12:11:12.017Z,1.90
2022-11-22T12:12:12.016Z,1.93
2022-11-22T12:13:11.994Z,1.86
2022-11-22T12:14:19.854Z,1.88
2022-11-22T12:15:12.458Z,1.88
2022-11-22T12:16:11.959Z,1.92
2022-11-22T12:17:11.942Z,1.92
2022-11-22T12:18:11.939Z,1.93
2022-11-22T12:19:11.942Z,1.95
2022-11-22T12:20:11.932Z,1.98
2022-11-22T12:21:11.901Z,2.01
2022-11-22T12:22:19.732Z,2.01
2022-11-22T12:23:11.888Z,2.01
2022-11-22T12:24:43.180Z,1.98
2022-11-22T12:25:31.566Z,1.98
2022-11-22T12:26:11.853Z,2.01
2022-11-22T12:27:11.837Z,2.04
2022-11-22T12:28:11.821Z,2.05
2022-11-22T12:29:11.828Z,2.08
2022-11-22T12:30:11.836Z,2.11
2022-11-22T12:31:15.146Z,2.11
2022-11-22T12:32:11.799Z,2.12
2022-11-22T12:33:11.780Z,2.12
2022-11-22T12:34:11.784Z,2.15
2022-11-22T12:35:11.757Z,2.15
2022-11-22T12:36:11.739Z,2.12
2022-11-22T12:37:11.734Z,2.15
2022-11-22T12:38:11.739Z,2.12
2022-11-22T12:39:11.752Z,2.08
2022-11-22T12:40:11.754Z,2.08
2022-11-22T12:41:11.715Z,2.08
2022-11-22T12:42:11.681Z,2.11
2022-11-22T12:43:11.680Z,2.08
2022-11-22T12:44:11.671Z,2.09
2022-11-22T12:45:11.650Z,2.09
2022-11-22T12:46:11.641Z,2.09
2022-11-22T12:47:11.636Z,2.14
2022-11-22T12:48:11.618Z,2.12
2022-11-22T12:49:11.627Z,2.09
2022-11-22T12:50:11.599Z,2.07
2022-11-22T12:51:11.591Z,2.08
2022-11-22T12:52:11.582Z,2.08
2022-11-22T12:53:11.576Z,2.08
2022-11-22T12:54:11.565Z,2.08
2022-11-22T12:55:11.554Z,2.05
2022-11-22T12:56:11.543Z,2.05
2022-11-22T12:57:11.530Z,2.02
2022-11-22T12:58:11.512Z,1.95
2022-11-22T12:59:11.526Z,1.92
2022-11-22T13:00:11.509Z,1.95
2022-11-22T13:01:11.563Z,1.95
2022-11-22T13:02:11.469Z,1.95
2022-11-22T13:03:11.472Z,1.98
2022-11-22T13:04:11.477Z,2.00
2022-11-22T13:05:11.442Z,1.95
2022-11-22T13:06:11.430Z,2.00
2022-11-22T13:07:11.477Z,2.01